Time;durP1;ratioP1;P1;durP2;ratioP2;P2;SDS_P1;SDS_P2;PMS_P1;PMS_P2;Temp;Humidity;BMP_temperature;BMP_pressure;BME280_temperature;BME280_humidity;BME280_pressure;Samples;Min_cycle;Max_cycle;Signal;HPM_P1;HPM_P2
2023/07/24 00:05:02;;;;;;;18.58;9.23;;;;;;;;;;10298577;28;20094;-81
2023/07/24 00:10:03;;;;;;;18.10;9.18;;;;;;;;;;10304052;28;20034;-79
2023/07/24 00:15:03;;;;;;;14.48;8.48;;;;;;;;;;10325332;28;20026;-82
2023/07/24 00:20:04;;;;;;;19.15;9.57;;;;;;;;;;10320409;28;20023;-78
2023/07/24 00:25:05;;;;;;;17.35;9.43;;;;;;;;;;10306718;28;20066;-80
2023/07/24 00:30:06;;;;;;;21.75;8.35;;;;;;;;;;10317641;28;20088;-79
2023/07/24 00:35:07;;;;;;;17.67;8.98;;;;;;;;;;10319422;28;20022;-79
2023/07/24 00:40:11;;;;;;;23.45;9.95;;;;;;;;;;10321619;28;20089;-83
2023/07/24 00:45:22;;;;;;;22.67;10.48;;;;;;;;;;10325289;28;20034;-85
2023/07/24 00:50:24;;;;;;;18.33;9.15;;;;;;;;;;10324045;28;20405;-89
2023/07/24 00:55:25;;;;;;;20.55;9.52;;;;;;;;;;10285530;28;20054;-79
2023/07/24 01:00:29;;;;;;;15.63;8.33;;;;;;;;;;10275632;28;20023;-84
2023/07/24 01:05:33;;;;;;;18.30;9.20;;;;;;;;;;10321216;28;20026;-78
2023/07/24 01:10:34;;;;;;;22.92;9.23;;;;;;;;;;10322062;28;20044;-80
2023/07/24 01:15:37;;;;;;;19.37;9.87;;;;;;;;;;10316024;28;20026;-81
2023/07/24 01:20:40;;;;;;;18.35;9.63;;;;;;;;;;10330219;28;20038;-75
2023/07/24 01:25:56;;;;;;;22.42;10.05;;;;;;;;;;10335889;28;20149;-85
2023/07/24 01:30:57;;;;;;;18.98;9.80;;;;;;;;;;10334526;28;20461;-76
2023/07/24 01:35:58;;;;;;;16.48;9.40;;;;;;;;;;10332006;28;20157;-82
2023/07/24 01:40:59;;;;;;;19.33;9.32;;;;;;;;;;10331294;28;20622;-81
2023/07/24 01:46:01;;;;;;;17.02;9.75;;;;;;;;;;10337078;28;20052;-74
2023/07/24 01:51:02;;;;;;;18.55;10.13;;;;;;;;;;10338787;28;20692;-81
2023/07/24 01:56:02;;;;;;;21.43;11.20;;;;;;;;;;10324806;28;20123;-79
2023/07/24 02:01:03;;;;;;;19.20;9.87;;;;;;;;;;10318614;28;20030;-79
2023/07/24 02:06:03;;;;;;;21.80;10.20;;;;;;;;;;10321330;28;20274;-72
2023/07/24 02:11:03;;;;;;;21.40;10.47;;;;;;;;;;10348513;28;20029;-82
2023/07/24 02:16:13;;;;;;;19.08;9.13;;;;;;;;;;10333414;28;20054;-75
2023/07/24 02:21:17;;;;;;;19.38;9.85;;;;;;;;;;10337439;28;20038;-85
2023/07/24 02:26:20;;;;;;;16.95;9.40;;;;;;;;;;10340882;28;20025;-83
2023/07/24 02:31:21;;;;;;;20.83;9.85;;;;;;;;;;10331413;28;20030;-74
2023/07/24 02:36:21;;;;;;;19.88;10.13;;;;;;;;;;10347741;28;20451;-71
2023/07/24 02:41:21;;;;;;;21.58;10.60;;;;;;;;;;10346722;28;20023;-83
2023/07/24 02:46:40;;;;;;;19.42;10.75;;;;;;;;;;10313151;28;20122;-74
2023/07/24 02:52:19;;;;;;;24.25;10.55;;;;;;;;;;10328213;28;20391;-73
2023/07/24 02:57:20;;;;;;;22.13;10.10;;;;;;;;;;10346606;28;20069;-83
2023/07/24 03:02:20;;;;;;;25.17;12.52;;;;;;;;;;10321459;28;20129;-78
2023/07/24 03:07:20;;;;;;;21.52;11.20;;;;;;;;;;10320554;28;20026;-77
2023/07/24 03:12:22;;;;;;;21.97;10.97;;;;;;;;;;10323833;28;20037;-83
2023/07/24 03:17:23;;;;;;;25.77;10.45;;;;;;;;;;10327914;28;20093;-77
2023/07/24 03:22:24;;;;;;;22.27;10.70;;;;;;;;;;10314559;28;20049;-81
2023/07/24 03:27:24;;;;;;;20.85;9.73;;;;;;;;;;10328143;28;20392;-83
2023/07/24 03:32:43;;;;;;;21.48;10.23;;;;;;;;;;10329778;28;20121;-81
2023/07/24 03:37:45;;;;;;;22.63;11.18;;;;;;;;;;10326975;28;20030;-79
2023/07/24 03:42:45;;;;;;;22.40;11.05;;;;;;;;;;10310776;28;20026;-85
2023/07/24 03:47:45;;;;;;;22.40;11.70;;;;;;;;;;10316010;28;20022;-80
2023/07/24 03:52:46;;;;;;;19.35;10.95;;;;;;;;;;10319136;28;20034;-78
2023/07/24 04:03:25;;;;;;;24.30;11.43;;;;;;;;;;10286064;28;20459;-78
2023/07/24 04:08:27;;;;;;;22.02;11.23;;;;;;;;;;10312246;28;20026;-83
2023/07/24 04:13:28;;;;;;;21.83;10.75;;;;;;;;;;10312794;28;20050;-80
2023/07/24 04:18:28;;;;;;;19.47;10.40;;;;;;;;;;10322175;28;20022;-81
2023/07/24 04:23:36;;;;;;;22.88;11.98;;;;;;;;;;10299005;28;20097;-82
2023/07/24 04:28:36;;;;;;;21.27;10.67;;;;;;;;;;10285498;28;20097;-82
2023/07/24 04:33:36;;;;;;;23.88;11.88;;;;;;;;;;10297299;28;20034;-79
2023/07/24 04:38:36;;;;;;;23.08;10.45;;;;;;;;;;10314448;28;20037;-80
2023/07/24 04:43:43;;;;;;;22.05;11.93;;;;;;;;;;10287434;28;20034;-81
2023/07/24 04:48:43;;;;;;;22.50;12.55;;;;;;;;;;10298806;28;20037;-82
2023/07/24 04:53:43;;;;;;;25.58;11.85;;;;;;;;;;10318540;28;20041;-79
2023/07/24 04:58:44;;;;;;;23.80;12.05;;;;;;;;;;10314666;28;20047;-79
2023/07/24 05:03:46;;;;;;;22.23;10.93;;;;;;;;;;10317669;28;20100;-78
2023/07/24 05:08:52;;;;;;;25.70;11.05;;;;;;;;;;10322947;28;20434;-79
2023/07/24 05:13:53;;;;;;;20.50;11.20;;;;;;;;;;10314427;28;20109;-81
2023/07/24 05:18:53;;;;;;;22.50;9.68;;;;;;;;;;10324509;28;20511;-80
2023/07/24 05:23:54;;;;;;;19.58;9.43;;;;;;;;;;10317835;28;20027;-84
2023/07/24 05:28:54;;;;;;;17.73;10.35;;;;;;;;;;10316103;28;20220;-79
2023/07/24 05:33:54;;;;;;;20.80;9.73;;;;;;;;;;10325107;28;20521;-80
2023/07/24 05:38:54;;;;;;;17.00;9.30;;;;;;;;;;10340425;23;20280;-70
2023/07/24 05:43:55;;;;;;;17.23;9.40;;;;;;;;;;10328502;28;20060;-69
2023/07/24 05:48:56;;;;;;;16.70;8.80;;;;;;;;;;10328314;28;20085;-70
2023/07/24 05:53:56;;;;;;;16.83;8.13;;;;;;;;;;10327722;28;20038;-69
2023/07/24 05:58:56;;;;;;;14.98;8.25;;;;;;;;;;10327796;28;20029;-69
2023/07/24 06:03:57;;;;;;;15.40;7.75;;;;;;;;;;10332863;28;20081;-70
2023/07/24 06:08:57;;;;;;;15.00;8.98;;;;;;;;;;10335381;28;20030;-71
2023/07/24 06:13:57;;;;;;;16.95;8.15;;;;;;;;;;10344177;28;20261;-70
2023/07/24 06:18:57;;;;;;;13.23;7.38;;;;;;;;;;10375593;28;20366;-70
2023/07/24 06:23:58;;;;;;;15.60;8.50;;;;;;;;;;10375216;28;20029;-70
2023/07/24 06:28:58;;;;;;;13.63;7.53;;;;;;;;;;10354845;28;20038;-70
2023/07/24 06:33:58;;;;;;;18.45;8.57;;;;;;;;;;10363087;28;20072;-70
2023/07/24 06:39:06;;;;;;;15.60;8.10;;;;;;;;;;10433020;28;20049;-70
2023/07/24 06:44:06;;;;;;;19.55;7.75;;;;;;;;;;10458646;28;20060;-70
2023/07/24 06:49:06;;;;;;;10.90;6.80;;;;;;;;;;10457445;28;20025;-71
2023/07/24 06:54:07;;;;;;;11.75;6.43;;;;;;;;;;10457646;28;20033;-70
2023/07/24 06:59:07;;;;;;;10.18;6.05;;;;;;;;;;10440322;28;20017;-71
2023/07/24 07:04:07;;;;;;;8.65;5.75;;;;;;;;;;10456537;28;20302;-70
2023/07/24 07:09:08;;;;;;;14.25;5.40;;;;;;;;;;10417508;28;20017;-70
2023/07/24 07:14:08;;;;;;;8.20;5.70;;;;;;;;;;10448385;28;20048;-70
2023/07/24 07:19:09;;;;;;;11.95;5.55;;;;;;;;;;10453955;28;20503;-69
2023/07/24 07:24:09;;;;;;;12.05;6.10;;;;;;;;;;10414741;28;20242;-70
2023/07/24 07:29:09;;;;;;;10.00;5.87;;;;;;;;;;10449567;28;20310;-70
2023/07/24 07:34:10;;;;;;;14.30;6.30;;;;;;;;;;10454182;28;20071;-70
2023/07/24 07:39:10;;;;;;;8.88;5.68;;;;;;;;;;10456350;28;20298;-70
2023/07/24 07:44:10;;;;;;;11.27;6.50;;;;;;;;;;10455532;28;20478;-71
2023/07/24 07:49:11;;;;;;;8.52;5.88;;;;;;;;;;10455353;28;20295;-69
2023/07/24 07:54:11;;;;;;;12.45;6.15;;;;;;;;;;10437195;28;20039;-70
2023/07/24 07:59:11;;;;;;;11.50;5.43;;;;;;;;;;10433018;28;20368;-69
2023/07/24 08:04:11;;;;;;;9.55;5.88;;;;;;;;;;10442473;28;20217;-71
2023/07/24 08:09:12;;;;;;;14.15;6.13;;;;;;;;;;10432736;28;20284;-70
2023/07/24 08:14:12;;;;;;;13.48;5.47;;;;;;;;;;10437067;28;20029;-70
2023/07/24 08:19:12;;;;;;;14.40;5.88;;;;;;;;;;10454453;28;20414;-70
2023/07/24 08:24:12;;;;;;;13.23;5.75;;;;;;;;;;10436046;28;20246;-70
2023/07/24 08:29:13;;;;;;;13.55;6.85;;;;;;;;;;10452811;28;20032;-71
2023/07/24 08:34:13;;;;;;;8.63;5.78;;;;;;;;;;10453503;28;20271;-71
2023/07/24 08:39:13;;;;;;;8.43;5.75;;;;;;;;;;10453305;28;20037;-70
2023/07/24 08:44:13;;;;;;;11.52;6.15;;;;;;;;;;10453132;28;20311;-70
2023/07/24 08:49:15;;;;;;;10.27;6.53;;;;;;;;;;10433983;28;20207;-70
2023/07/24 08:54:16;;;;;;;13.57;6.47;;;;;;;;;;10393057;28;20033;-70
2023/07/24 08:59:17;;;;;;;12.88;6.70;;;;;;;;;;10411598;28;20051;-70
2023/07/24 09:04:17;;;;;;;14.85;6.55;;;;;;;;;;10444726;28;20061;-70
2023/07/24 09:09:17;;;;;;;15.13;7.97;;;;;;;;;;10434643;28;20226;-70
2023/07/24 09:14:24;;;;;;;11.68;7.18;;;;;;;;;;10437247;28;20088;-69
2023/07/24 09:19:25;;;;;;;12.80;7.35;;;;;;;;;;10452755;28;20196;-69
2023/07/24 09:24:25;;;;;;;14.57;7.85;;;;;;;;;;10452123;28;20029;-70
2023/07/24 09:29:32;;;;;;;13.27;7.90;;;;;;;;;;10424404;28;20368;-71
2023/07/24 09:34:32;;;;;;;12.15;6.75;;;;;;;;;;10410581;28;20219;-70
2023/07/24 09:39:33;;;;;;;14.68;7.47;;;;;;;;;;10417559;28;20053;-70
2023/07/24 09:44:33;;;;;;;16.60;7.40;;;;;;;;;;10419901;28;20021;-70
2023/07/24 09:49:33;;;;;;;17.23;7.30;;;;;;;;;;10418141;28;20357;-70
2023/07/24 09:54:40;;;;;;;10.60;6.35;;;;;;;;;;10427485;28;20327;-71
2023/07/24 09:59:41;;;;;;;15.18;6.32;;;;;;;;;;10427000;28;20071;-71
2023/07/24 10:04:41;;;;;;;11.67;6.53;;;;;;;;;;10420959;28;20059;-71
2023/07/24 10:09:44;;;;;;;13.00;6.22;;;;;;;;;;10448155;28;20308;-71
2023/07/24 10:14:48;;;;;;;12.82;6.05;;;;;;;;;;10417186;28;20045;-71
2023/07/24 10:19:48;;;;;;;11.00;6.43;;;;;;;;;;10425423;28;20040;-71
2023/07/24 10:24:48;;;;;;;17.65;6.45;;;;;;;;;;10458619;28;20067;-70
2023/07/24 10:29:58;;;;;;;14.95;5.85;;;;;;;;;;10458106;28;20024;-70
2023/07/24 10:34:58;;;;;;;15.15;6.60;;;;;;;;;;10458096;28;20063;-70
2023/07/24 10:39:58;;;;;;;17.05;6.80;;;;;;;;;;10456896;28;20037;-71
2023/07/24 10:45:03;;;;;;;12.93;6.28;;;;;;;;;;10457614;28;20076;-71
2023/07/24 10:50:04;;;;;;;20.02;7.78;;;;;;;;;;10442559;28;20045;-71
2023/07/24 10:55:05;;;;;;;14.75;6.82;;;;;;;;;;10416250;28;20222;-71
2023/07/24 11:00:05;;;;;;;12.52;5.00;;;;;;;;;;10415571;28;20009;-69
2023/07/24 11:05:07;;;;;;;13.95;5.25;;;;;;;;;;10452926;28;20029;-71
2023/07/24 11:10:20;;;;;;;11.02;5.10;;;;;;;;;;10457185;28;20132;-69
2023/07/24 11:15:25;;;;;;;9.18;4.78;;;;;;;;;;10432888;28;20017;-71
2023/07/24 11:20:25;;;;;;;14.18;6.50;;;;;;;;;;10436095;28;20035;-70
2023/07/24 11:25:26;;;;;;;14.90;6.07;;;;;;;;;;10455664;28;20020;-71
2023/07/24 11:30:27;;;;;;;20.67;6.32;;;;;;;;;;10456002;28;20346;-70
2023/07/24 11:35:27;;;;;;;11.90;6.18;;;;;;;;;;10400972;28;20018;-70
2023/07/24 11:40:35;;;;;;;12.47;6.47;;;;;;;;;;10428158;28;20043;-70
2023/07/24 11:45:42;;;;;;;13.00;6.28;;;;;;;;;;10455469;28;20076;-70
2023/07/24 11:50:53;;;;;;;15.27;6.35;;;;;;;;;;10454620;28;20021;-70
2023/07/24 11:55:54;;;;;;;17.60;6.80;;;;;;;;;;10417793;28;20037;-70
2023/07/24 12:00:55;;;;;;;15.85;5.88;;;;;;;;;;10429671;28;20025;-69
2023/07/24 12:05:56;;;;;;;15.90;7.15;;;;;;;;;;10454199;28;20076;-70
2023/07/24 12:10:56;;;;;;;13.75;6.25;;;;;;;;;;10454691;28;20247;-70
2023/07/24 12:15:56;;;;;;;18.03;7.13;;;;;;;;;;10443266;28;20482;-70
2023/07/24 12:20:56;;;;;;;19.08;7.28;;;;;;;;;;10423573;28;20036;-70
2023/07/24 12:25:57;;;;;;;13.75;7.18;;;;;;;;;;10427965;28;20326;-70
2023/07/24 12:30:57;;;;;;;16.10;6.40;;;;;;;;;;10453076;28;20046;-70
2023/07/24 12:35:57;;;;;;;12.13;6.80;;;;;;;;;;10453231;28;20315;-70
2023/07/24 12:40:58;;;;;;;15.35;6.78;;;;;;;;;;10452301;28;20029;-70
2023/07/24 12:45:58;;;;;;;15.05;6.25;;;;;;;;;;10452999;28;20048;-70
2023/07/24 12:51:00;;;;;;;13.30;6.57;;;;;;;;;;10452972;28;20044;-70
2023/07/24 12:56:00;;;;;;;15.88;7.00;;;;;;;;;;10452822;28;20349;-70
2023/07/24 13:01:00;;;;;;;15.00;7.20;;;;;;;;;;10452395;28;20025;-70
2023/07/24 13:06:00;;;;;;;13.77;7.00;;;;;;;;;;10453033;28;20374;-71
2023/07/24 13:11:01;;;;;;;18.70;9.40;;;;;;;;;;10452338;28;20024;-70
2023/07/24 13:16:01;;;;;;;10.60;6.57;;;;;;;;;;10460818;28;20056;-71
2023/07/24 13:21:02;;;;;;;17.17;6.97;;;;;;;;;;10461150;28;20234;-71
2023/07/24 13:26:02;;;;;;;11.20;6.57;;;;;;;;;;10460920;28;20039;-69
2023/07/24 13:31:15;;;;;;;16.50;9.88;;;;;;;;;;10460581;28;20032;-71
2023/07/24 13:36:15;;;;;;;13.50;7.88;;;;;;;;;;10460496;28;20278;-71
2023/07/24 13:41:16;;;;;;;14.73;7.07;;;;;;;;;;10459949;28;20096;-71
2023/07/24 13:46:16;;;;;;;28.27;9.32;;;;;;;;;;10460751;28;20094;-71
2023/07/24 13:51:16;;;;;;;13.55;7.53;;;;;;;;;;10441835;28;20232;-70
2023/07/24 13:56:18;;;;;;;11.75;6.95;;;;;;;;;;10459379;28;20110;-71
2023/07/24 14:01:18;;;;;;;25.77;8.15;;;;;;;;;;10459436;28;20340;-71
2023/07/24 14:06:18;;;;;;;12.05;6.85;;;;;;;;;;10460517;28;20012;-71
2023/07/24 14:11:19;;;;;;;12.55;6.57;;;;;;;;;;10459052;28;20053;-71
2023/07/24 14:16:19;;;;;;;12.50;7.50;;;;;;;;;;10459213;28;20075;-71
2023/07/24 14:21:19;;;;;;;16.83;7.03;;;;;;;;;;10458659;28;20021;-71
2023/07/24 14:26:19;;;;;;;14.05;8.30;;;;;;;;;;10448508;28;20338;-71
2023/07/24 14:31:20;;;;;;;13.43;8.27;;;;;;;;;;10416706;28;20260;-71
2023/07/24 14:36:20;;;;;;;23.53;8.47;;;;;;;;;;10417096;28;20362;-71
2023/07/24 14:41:21;;;;;;;16.17;8.37;;;;;;;;;;10429029;28;20302;-71
2023/07/24 14:46:21;;;;;;;15.10;7.87;;;;;;;;;;10457302;28;20063;-70
2023/07/24 14:51:23;;;;;;;13.13;7.77;;;;;;;;;;10430063;28;20044;-71
2023/07/24 14:56:23;;;;;;;13.05;8.10;;;;;;;;;;10434477;28;20340;-71
2023/07/24 15:01:25;;;;;;;13.23;7.63;;;;;;;;;;10456547;28;20075;-69
2023/07/24 15:06:26;;;;;;;13.65;8.57;;;;;;;;;;10456793;28;20033;-70
2023/07/24 15:11:26;;;;;;;13.02;8.23;;;;;;;;;;10456683;28;20024;-70
2023/07/24 15:16:26;;;;;;;15.82;7.90;;;;;;;;;;10456380;28;20334;-70
2023/07/24 15:21:27;;;;;;;16.45;8.15;;;;;;;;;;10456749;28;20266;-69
2023/07/24 15:26:27;;;;;;;25.15;15.63;;;;;;;;;;10455342;28;20355;-70
2023/07/24 15:31:30;;;;;;;15.95;7.75;;;;;;;;;;10438509;28;20031;-70
2023/07/24 15:36:30;;;;;;;15.13;7.32;;;;;;;;;;10454792;28;20208;-70
2023/07/24 15:41:31;;;;;;;15.55;8.20;;;;;;;;;;10449396;28;20025;-70
2023/07/24 15:46:32;;;;;;;17.83;7.45;;;;;;;;;;10414148;28;20227;-70
2023/07/24 15:51:32;;;;;;;15.40;8.37;;;;;;;;;;10453084;28;20039;-70
2023/07/24 15:56:32;;;;;;;14.37;7.93;;;;;;;;;;10421671;28;20223;-69
2023/07/24 16:01:33;;;;;;;14.00;7.53;;;;;;;;;;10436668;28;20028;-70
2023/07/24 16:06:33;;;;;;;15.37;7.97;;;;;;;;;;10454225;28;20020;-71
2023/07/24 16:11:33;;;;;;;16.42;8.40;;;;;;;;;;10453779;28;20009;-69
2023/07/24 16:16:34;;;;;;;22.30;8.50;;;;;;;;;;10454062;28;20287;-69
2023/07/24 16:21:34;;;;;;;15.32;8.70;;;;;;;;;;10453368;28;20031;-70
2023/07/24 16:26:34;;;;;;;15.35;8.18;;;;;;;;;;10453625;28;20071;-71
2023/07/24 16:31:35;;;;;;;13.63;7.97;;;;;;;;;;10434045;28;20025;-71
2023/07/24 16:36:35;;;;;;;14.80;8.60;;;;;;;;;;10409218;28;20041;-78
2023/07/24 16:41:36;;;;;;;14.13;7.77;;;;;;;;;;10403514;28;20051;-76
2023/07/24 16:46:37;;;;;;;18.33;8.97;;;;;;;;;;10403081;28;20021;-75
2023/07/24 16:51:37;;;;;;;16.42;8.77;;;;;;;;;;10407460;28;20330;-76
2023/07/24 16:56:37;;;;;;;21.20;10.85;;;;;;;;;;10400391;28;20018;-75
2023/07/24 17:01:38;;;;;;;18.97;11.10;;;;;;;;;;10407307;28;20032;-76
2023/07/24 17:06:38;;;;;;;22.77;9.13;;;;;;;;;;10379976;28;20329;-76
2023/07/24 17:11:38;;;;;;;27.67;11.30;;;;;;;;;;10408366;28;20244;-74
2023/07/24 17:16:38;;;;;;;20.55;10.57;;;;;;;;;;10401867;28;20068;-76
2023/07/24 17:21:39;;;;;;;17.85;9.70;;;;;;;;;;10398159;28;20024;-74
2023/07/24 17:26:39;;;;;;;20.15;10.60;;;;;;;;;;10410324;28;20017;-77
2023/07/24 17:31:42;;;;;;;21.30;9.82;;;;;;;;;;10410469;28;20052;-77
2023/07/24 17:36:42;;;;;;;21.50;9.50;;;;;;;;;;10400554;28;20041;-72
2023/07/24 17:41:42;;;;;;;16.77;9.30;;;;;;;;;;10396784;28;20258;-74
2023/07/24 17:46:43;;;;;;;17.30;9.68;;;;;;;;;;10400082;28;20033;-73
2023/07/24 17:51:43;;;;;;;24.88;9.38;;;;;;;;;;10397985;28;20033;-74
2023/07/24 17:56:43;;;;;;;20.67;9.50;;;;;;;;;;10405007;28;20029;-73
2023/07/24 18:01:43;;;;;;;26.00;9.82;;;;;;;;;;10402488;28;20025;-69
2023/07/24 18:06:44;;;;;;;23.55;10.48;;;;;;;;;;10399875;28;20086;-69
2023/07/24 18:11:44;;;;;;;19.27;10.32;;;;;;;;;;10405574;28;20222;-68
2023/07/24 18:16:56;;;;;;;25.33;10.63;;;;;;;;;;10415239;28;20017;-68
2023/07/24 18:21:56;;;;;;;20.02;10.25;;;;;;;;;;10408293;28;20192;-69
2023/07/24 18:26:57;;;;;;;24.63;10.27;;;;;;;;;;10390913;28;20025;-69
2023/07/24 18:31:57;;;;;;;22.00;10.82;;;;;;;;;;10402950;28;20030;-69
2023/07/24 18:36:57;;;;;;;20.02;10.85;;;;;;;;;;10402237;28;20038;-66
2023/07/24 18:41:57;;;;;;;20.17;10.10;;;;;;;;;;10396113;28;20221;-68
2023/07/24 18:46:58;;;;;;;26.75;11.07;;;;;;;;;;10400080;28;20025;-68
2023/07/24 18:51:58;;;;;;;29.08;11.15;;;;;;;;;;10383423;28;20160;-68
2023/07/24 18:57:00;;;;;;;23.60;10.50;;;;;;;;;;10397614;28;20018;-73
2023/07/24 19:02:00;;;;;;;25.00;10.20;;;;;;;;;;10406387;28;20026;-73
2023/07/24 19:07:00;;;;;;;21.08;10.80;;;;;;;;;;10399153;28;20025;-74
2023/07/24 19:12:00;;;;;;;30.05;11.02;;;;;;;;;;10404699;28;20072;-76
2023/07/24 19:17:01;;;;;;;21.47;10.77;;;;;;;;;;10397460;28;20347;-79
2023/07/24 19:22:02;;;;;;;23.73;10.68;;;;;;;;;;10396735;28;20280;-67
2023/07/24 19:27:02;;;;;;;20.15;9.73;;;;;;;;;;10394463;28;20077;-74
2023/07/24 19:32:03;;;;;;;17.80;9.15;;;;;;;;;;10395369;28;20068;-75
2023/07/24 19:37:03;;;;;;;20.90;11.07;;;;;;;;;;10402594;28;20338;-75
2023/07/24 19:42:04;;;;;;;22.63;10.13;;;;;;;;;;10381510;28;20350;-76
2023/07/24 19:47:04;;;;;;;22.92;9.93;;;;;;;;;;10402503;28;20481;-75
2023/07/24 19:52:05;;;;;;;19.77;9.13;;;;;;;;;;10400074;28;20049;-76
2023/07/24 19:57:06;;;;;;;23.48;9.50;;;;;;;;;;10398561;28;20077;-80
2023/07/24 20:02:06;;;;;;;18.70;9.13;;;;;;;;;;10406386;28;20021;-78
2023/07/24 20:07:07;;;;;;;20.52;9.23;;;;;;;;;;10391255;28;20041;-76
2023/07/24 20:12:07;;;;;;;20.80;9.63;;;;;;;;;;10398736;28;20040;-76
2023/07/24 20:17:08;;;;;;;18.73;8.27;;;;;;;;;;10405849;28;20295;-80
2023/07/24 20:22:08;;;;;;;18.73;7.80;;;;;;;;;;10394742;28;20021;-74
2023/07/24 20:27:08;;;;;;;19.53;8.60;;;;;;;;;;10401058;28;20029;-75
2023/07/24 20:32:09;;;;;;;17.92;9.55;;;;;;;;;;10397704;28;20093;-74
2023/07/24 20:37:13;;;;;;;21.17;8.17;;;;;;;;;;10376980;28;20127;-78
2023/07/24 20:42:13;;;;;;;24.92;8.52;;;;;;;;;;10355138;28;20121;-80
2023/07/24 20:47:16;;;;;;;18.85;8.68;;;;;;;;;;10403397;28;20025;-81
2023/07/24 20:52:16;;;;;;;18.48;9.05;;;;;;;;;;10404069;28;20255;-88
2023/07/24 20:57:17;;;;;;;13.87;7.60;;;;;;;;;;10387563;28;20021;-69
2023/07/24 21:02:17;;;;;;;18.50;8.88;;;;;;;;;;10382019;28;20211;-69
2023/07/24 21:07:17;;;;;;;22.35;8.43;;;;;;;;;;10393061;28;20029;-69
2023/07/24 21:12:17;;;;;;;16.65;8.43;;;;;;;;;;10387746;28;20025;-68
2023/07/24 21:17:18;;;;;;;16.73;8.90;;;;;;;;;;10449809;28;20021;-69
2023/07/24 21:22:18;;;;;;;16.53;9.13;;;;;;;;;;10425827;28;20327;-69
2023/07/24 21:27:18;;;;;;;16.83;8.55;;;;;;;;;;10444257;28;20047;-69
2023/07/24 21:32:18;;;;;;;18.27;8.85;;;;;;;;;;10405250;28;20351;-69
2023/07/24 21:37:19;;;;;;;18.55;8.18;;;;;;;;;;10426102;28;20096;-69
2023/07/24 21:42:19;;;;;;;17.45;8.90;;;;;;;;;;10446021;28;20229;-70
2023/07/24 21:47:23;;;;;;;14.43;7.63;;;;;;;;;;10453192;28;20226;-68
2023/07/24 21:52:26;;;;;;;16.63;8.68;;;;;;;;;;10418589;28;20029;-69
2023/07/24 21:57:27;;;;;;;15.95;7.38;;;;;;;;;;10429081;28;20126;-69
2023/07/24 22:02:30;;;;;;;25.70;8.65;;;;;;;;;;10418638;28;20025;-69
2023/07/24 22:07:31;;;;;;;23.10;10.10;;;;;;;;;;10419783;28;20362;-68
2023/07/24 22:12:52;;;;;;;19.90;9.20;;;;;;;;;;10459024;28;20038;-70
2023/07/24 22:17:52;;;;;;;19.17;8.35;;;;;;;;;;10439333;28;20025;-69
2023/07/24 22:22:58;;;;;;;19.25;9.38;;;;;;;;;;10422455;28;20415;-69
2023/07/24 22:27:59;;;;;;;20.42;8.88;;;;;;;;;;10444176;28;20095;-69
2023/07/24 22:32:59;;;;;;;21.15;7.95;;;;;;;;;;10446914;28;20095;-69
2023/07/24 22:37:59;;;;;;;20.95;9.30;;;;;;;;;;10393961;28;20053;-69
2023/07/24 22:43:00;;;;;;;21.48;8.82;;;;;;;;;;10391742;28;20303;-68
2023/07/24 22:48:00;;;;;;;16.93;8.57;;;;;;;;;;10386323;28;20041;-69
2023/07/24 22:53:00;;;;;;;20.55;8.95;;;;;;;;;;10386683;28;20017;-69
2023/07/24 22:58:01;;;;;;;18.70;9.25;;;;;;;;;;10392720;28;20315;-69
2023/07/24 23:03:01;;;;;;;16.67;8.90;;;;;;;;;;10390710;28;20018;-69
2023/07/24 23:08:01;;;;;;;24.07;9.50;;;;;;;;;;10388076;28;20056;-69
2023/07/24 23:13:01;;;;;;;24.00;9.25;;;;;;;;;;10385497;28;20029;-69
2023/07/24 23:18:02;;;;;;;21.35;10.55;;;;;;;;;;10388653;28;20381;-69
2023/07/24 23:23:02;;;;;;;15.57;8.63;;;;;;;;;;10382879;28;20017;-68
2023/07/24 23:28:03;;;;;;;21.95;9.05;;;;;;;;;;10417913;28;20326;-69
2023/07/24 23:33:03;;;;;;;19.20;8.33;;;;;;;;;;10400628;28;20025;-68
2023/07/24 23:38:06;;;;;;;18.33;8.77;;;;;;;;;;10416996;28;20044;-68
2023/07/24 23:43:45;;;;;;;25.58;10.02;;;;;;;;;;10389852;28;20533;-68
2023/07/24 23:48:45;;;;;;;;;;;;;;;;;;10373036;28;20501;-68
2023/07/24 23:53:45;;;;;;;28.13;11.35;;;;;;;;;;10411578;28;19988;-68
2023/07/24 23:58:46;;;;;;;17.50;9.30;;;;;;;;;;10449489;28;20033;-70
